Millville, Minnesota
Current Conditions -  °F | °C
As of 3:53 PM on Saturday 25 Oct 2014 (Local Time) from K9MN Reporting Station
Clear Clear  
Wind Chill: 62°   Ceiling: Unl
Heat Index: 62°   Visibility: 10mi
Dew Point: 24°   Wind: 24mph
Humidity: 24%   Direction: 290°WNW
Pressure: 30.03"   Gusts: 31mph
Location:  44.24°N, 92.3°W
Report Text: K9MN 252053Z AUTO 29021G27KT 10SM CLR 17/M04 A3003 RMK AO1 T01681042
Loading
Personal Weather Stations






























Interactive Weather Map
Tropical Storm Tracking
New forecast layout! Learn more

10-Day Weather Forecast

Advertisements
Track Severe Weather on mobile